createdAt,value
2022-10-17T00:01:06.710Z,101266.25
2022-10-17T00:03:38.741Z,101259.28
2022-10-17T00:06:13.061Z,101259.19
2022-10-17T00:08:44.769Z,101270.78
2022-10-17T00:11:19.024Z,101271.69
2022-10-17T00:13:53.582Z,101287.66
2022-10-17T00:16:27.591Z,101285.84
2022-10-17T00:18:59.520Z,101289.31
2022-10-17T00:21:30.895Z,101279.50
2022-10-17T00:24:02.185Z,101267.03
2022-10-17T00:26:33.438Z,101264.34
2022-10-17T00:29:05.000Z,101273.13
2022-10-17T00:31:36.336Z,101268.69
2022-10-17T00:34:07.576Z,101284.56
2022-10-17T00:36:38.892Z,101280.94
2022-10-17T00:39:10.141Z,101256.91
2022-10-17T00:41:41.513Z,101248.06
2022-10-17T00:44:30.997Z,101258.63
2022-10-17T00:47:07.721Z,101255.06
2022-10-17T00:49:39.605Z,101263.94
2022-10-17T00:52:23.807Z,101276.28
2022-10-17T00:55:12.134Z,101281.53
2022-10-17T00:57:45.763Z,101277.84
2022-10-17T01:00:17.957Z,101279.47
2022-10-17T01:02:49.269Z,101268.72
2022-10-17T01:05:21.113Z,101255.16
2022-10-17T01:07:54.017Z,101259.28
2022-10-17T01:10:32.968Z,101264.31
2022-10-17T01:13:21.760Z,101263.22
2022-10-17T01:16:10.115Z,101270.06
2022-10-17T01:18:53.681Z,101279.78
2022-10-17T01:21:38.098Z,101276.31
2022-10-17T01:24:31.293Z,101270.09
2022-10-17T01:27:25.823Z,101279.84
2022-10-17T01:30:34.685Z,101272.72
2022-10-17T01:33:53.191Z,101275.41
2022-10-17T01:36:50.622Z,101269.25
2022-10-17T01:39:36.813Z,101273.59
2022-10-17T01:42:18.597Z,101272.75
2022-10-17T01:44:57.557Z,101267.38
2022-10-17T01:47:32.301Z,101275.28
2022-10-17T01:50:10.728Z,101274.31
2022-10-17T01:52:48.629Z,101252.25
2022-10-17T01:55:25.251Z,101271.41
2022-10-17T01:58:03.084Z,101263.34
2022-10-17T02:00:35.645Z,101268.63
2022-10-17T02:03:12.102Z,101259.72
2022-10-17T02:05:44.675Z,101265.00
2022-10-17T02:08:26.451Z,101256.06
2022-10-17T02:11:03.926Z,101259.59
2022-10-17T02:17:02.172Z,101238.16
2022-10-17T02:19:39.409Z,101227.50
2022-10-17T02:22:35.170Z,101228.34
2022-10-17T02:25:45.638Z,101228.28
2022-10-17T02:28:42.283Z,101229.16
2022-10-17T02:31:24.827Z,101222.97
2022-10-17T02:34:02.194Z,101230.09
2022-10-17T02:36:42.770Z,101232.75
2022-10-17T02:39:16.137Z,101227.47
2022-10-17T02:41:50.930Z,101208.13
2022-10-17T02:44:23.211Z,101224.88
2022-10-17T02:47:11.154Z,101213.41
2022-10-17T02:49:49.996Z,101205.63
2022-10-17T02:52:28.950Z,101219.00
2022-10-17T02:55:08.258Z,101201.50
2022-10-17T02:57:44.801Z,101212.19
2022-10-17T03:00:18.839Z,101214.13
2022-10-17T03:02:52.279Z,101206.25
2022-10-17T03:05:29.184Z,101193.94
2022-10-17T03:08:00.449Z,101189.78
2022-10-17T03:10:31.753Z,101200.44
2022-10-17T03:13:03.171Z,101194.34
2022-10-17T03:15:34.441Z,101188.25
2022-10-17T03:18:05.906Z,101185.72
2022-10-17T03:20:37.362Z,101193.78
2022-10-17T03:23:08.693Z,101183.19
2022-10-17T03:25:41.559Z,101186.78
2022-10-17T03:28:12.828Z,101187.72
2022-10-17T03:30:44.182Z,101189.56
2022-10-17T03:33:15.509Z,101186.97
2022-10-17T03:35:46.856Z,101177.31
2022-10-17T03:38:18.174Z,101190.63
2022-10-17T03:40:56.362Z,101185.38
2022-10-17T03:43:27.767Z,101195.22
2022-10-17T03:46:00.234Z,101164.41
2022-10-17T03:48:32.125Z,101182.97
2022-10-17T03:51:08.957Z,101179.47
2022-10-17T03:53:40.302Z,101179.59
2022-10-17T03:56:20.260Z,101181.44
2022-10-17T03:58:51.794Z,101176.19
2022-10-17T04:01:23.496Z,101174.47
2022-10-17T04:03:56.473Z,101171.88
2022-10-17T04:06:27.867Z,101182.59
2022-10-17T04:08:59.510Z,101180.84
2022-10-17T04:11:30.798Z,101178.28
2022-10-17T04:14:02.272Z,101179.16
2022-10-17T04:16:33.627Z,101178.34
2022-10-17T04:19:05.076Z,101180.19
2022-10-17T04:21:36.340Z,101172.31
2022-10-17T04:24:10.727Z,101166.03
2022-10-17T04:26:42.239Z,101179.31
2022-10-17T04:29:13.560Z,101191.66
2022-10-17T04:31:44.886Z,101144.00
2022-10-17T04:34:16.443Z,101166.78
2022-10-17T04:36:47.741Z,101167.53
2022-10-17T04:39:19.035Z,101163.88
2022-10-17T04:41:50.332Z,101168.28
2022-10-17T04:44:21.781Z,101172.63
2022-10-17T04:46:53.042Z,101169.06
2022-10-17T04:49:24.319Z,101166.38
2022-10-17T04:51:55.568Z,101157.44
2022-10-17T04:54:26.827Z,101158.19
2022-10-17T04:56:58.107Z,101154.56
2022-10-17T04:59:29.698Z,101158.03
2022-10-17T05:02:00.977Z,101158.00
2022-10-17T05:04:32.273Z,101139.50
2022-10-17T05:07:03.859Z,101156.22
2022-10-17T05:09:35.200Z,101157.22
2022-10-17T05:12:09.493Z,101160.75
2022-10-17T05:14:41.802Z,101157.28
2022-10-17T05:17:13.065Z,101155.63
2022-10-17T05:19:44.334Z,101163.69
2022-10-17T05:22:15.636Z,101160.19
2022-10-17T05:24:47.055Z,101162.91
2022-10-17T05:27:18.314Z,101159.47
2022-10-17T05:29:49.564Z,101163.09
2022-10-17T05:32:20.814Z,101159.56
2022-10-17T05:34:52.134Z,101156.97
2022-10-17T05:37:23.667Z,101136.78
2022-10-17T05:39:55.006Z,101146.44
2022-10-17T05:42:26.472Z,101151.69
2022-10-17T05:44:58.322Z,101156.94
2022-10-17T05:47:29.782Z,101164.91
2022-10-17T05:50:01.191Z,101152.53
2022-10-17T05:52:32.672Z,101158.63
2022-10-17T05:55:05.650Z,101147.13
2022-10-17T05:57:37.035Z,101154.19
2022-10-17T06:00:09.106Z,101151.44
2022-10-17T06:02:40.362Z,101162.84
2022-10-17T06:05:12.337Z,101156.59
2022-10-17T06:07:43.908Z,101135.28
2022-10-17T06:10:17.263Z,101140.50
2022-10-17T06:12:48.585Z,101157.13
2022-10-17T06:15:19.877Z,101164.91
2022-10-17T06:17:51.138Z,101158.50
2022-10-17T06:20:22.381Z,101162.81
2022-10-17T06:22:53.640Z,101171.47
2022-10-17T06:25:24.922Z,101162.44
2022-10-17T06:27:56.215Z,101162.22
2022-10-17T06:30:27.885Z,101154.09
2022-10-17T06:32:59.188Z,101155.63
2022-10-17T06:35:30.441Z,101157.16
2022-10-17T06:38:03.055Z,101142.78
2022-10-17T06:40:34.338Z,101162.88
2022-10-17T06:43:05.753Z,101150.13
2022-10-17T06:45:39.577Z,101152.47
2022-10-17T06:48:10.832Z,101151.22
2022-10-17T06:50:42.170Z,101144.75
2022-10-17T06:53:13.430Z,101151.34
2022-10-17T06:55:44.715Z,101157.22
2022-10-17T06:58:15.969Z,101155.13
2022-10-17T07:00:47.297Z,101147.53
2022-10-17T07:03:18.679Z,101148.88
2022-10-17T07:05:52.150Z,101163.53
2022-10-17T07:08:24.297Z,101154.19
2022-10-17T07:10:56.564Z,101169.84
2022-10-17T07:13:27.823Z,101180.22
2022-10-17T07:16:01.671Z,101183.63
2022-10-17T07:18:32.935Z,101185.97
2022-10-17T07:21:04.900Z,101187.47
2022-10-17T07:23:37.182Z,101188.25
2022-10-17T07:26:12.529Z,101177.41
2022-10-17T07:28:46.023Z,101189.56
2022-10-17T07:31:19.251Z,101198.94
2022-10-17T07:33:51.245Z,101201.16
2022-10-17T07:36:22.506Z,101198.06
2022-10-17T07:38:53.899Z,101190.47
2022-10-17T07:41:25.153Z,101192.00
2022-10-17T07:43:56.415Z,101188.41
2022-10-17T07:46:27.710Z,101202.91
2022-10-17T07:48:58.975Z,101197.66
2022-10-17T07:51:30.316Z,101197.53
2022-10-17T07:54:01.637Z,101201.97
2022-10-17T07:56:33.389Z,101211.19
2022-10-17T07:59:08.341Z,101197.38
2022-10-17T08:01:40.771Z,101197.13
2022-10-17T08:04:12.120Z,101199.44
2022-10-17T08:06:43.656Z,101197.06
2022-10-17T08:09:15.630Z,101196.50
2022-10-17T08:11:47.220Z,101194.13
2022-10-17T08:14:18.522Z,101195.31
2022-10-17T08:16:49.823Z,101190.34
2022-10-17T08:19:21.115Z,101194.41
2022-10-17T08:21:54.229Z,101174.78
2022-10-17T08:24:25.653Z,101176.94
2022-10-17T08:26:58.233Z,101192.50
2022-10-17T08:29:29.671Z,101194.66
2022-10-17T08:32:02.368Z,101185.94
2022-10-17T08:34:34.750Z,101185.16
2022-10-17T08:37:06.116Z,101186.09
2022-10-17T08:39:37.495Z,101179.72
2022-10-17T08:42:08.714Z,101182.38
2022-10-17T08:44:56.728Z,101190.34
2022-10-17T08:47:44.987Z,101184.34
2022-10-17T08:50:43.789Z,101188.34
2022-10-17T08:53:34.712Z,101191.44
2022-10-17T08:56:19.911Z,101195.50
2022-10-17T08:58:56.370Z,101206.44
2022-10-17T09:01:50.070Z,101194.25
2022-10-17T09:04:39.470Z,101190.03
2022-10-17T09:07:27.325Z,101190.19
2022-10-17T09:10:15.758Z,101187.03
2022-10-17T09:13:25.218Z,101178.25
2022-10-17T09:16:07.954Z,101188.22
2022-10-17T09:19:01.667Z,101182.13
2022-10-17T09:22:00.746Z,101185.75
2022-10-17T09:24:37.939Z,101197.22
2022-10-17T09:27:36.909Z,101189.63
2022-10-17T09:30:49.221Z,101195.88
2022-10-17T09:33:35.397Z,101196.28
2022-10-17T09:36:33.803Z,101199.59
2022-10-17T09:39:12.358Z,101187.81
2022-10-17T09:41:49.379Z,101192.22
2022-10-17T09:44:35.452Z,101200.41
2022-10-17T09:47:22.519Z,101201.16
2022-10-17T09:49:54.058Z,101195.09
2022-10-17T09:52:30.597Z,101196.84
2022-10-17T09:55:15.867Z,101204.75
2022-10-17T09:57:58.639Z,101207.19
2022-10-17T10:00:32.922Z,101210.09
2022-10-17T10:03:23.628Z,101211.94
2022-10-17T10:06:12.615Z,101212.59
2022-10-17T10:08:53.241Z,101210.28
2022-10-17T10:11:44.150Z,101209.03
2022-10-17T10:14:33.302Z,101210.97
2022-10-17T10:17:24.137Z,101210.22
2022-10-17T10:19:55.866Z,101201.50
2022-10-17T10:22:27.751Z,101219.59
2022-10-17T10:25:13.300Z,101231.25
2022-10-17T10:27:47.034Z,101224.00
2022-10-17T10:30:31.439Z,101226.59
2022-10-17T10:33:05.019Z,101235.41
2022-10-17T10:35:37.785Z,101225.53
2022-10-17T10:38:17.597Z,101217.69
2022-10-17T10:40:52.911Z,101219.00
2022-10-17T10:43:32.840Z,101209.81
2022-10-17T10:46:22.719Z,101215.44
2022-10-17T10:49:01.787Z,101217.47
2022-10-17T10:51:39.631Z,101226.88
2022-10-17T10:54:26.569Z,101227.06
2022-10-17T10:57:01.134Z,101226.38
2022-10-17T10:59:42.985Z,101219.59
2022-10-17T11:02:42.714Z,101226.66
2022-10-17T11:05:41.377Z,101218.22
2022-10-17T11:08:42.989Z,101239.41
2022-10-17T11:11:23.723Z,101238.97
2022-10-17T11:14:04.291Z,101245.16
2022-10-17T11:16:41.788Z,101243.50
2022-10-17T11:19:33.819Z,101242.88
2022-10-17T11:22:16.537Z,101242.78
2022-10-17T11:24:59.516Z,101246.56
2022-10-17T11:27:31.647Z,101245.03
2022-10-17T11:30:03.845Z,101247.94
2022-10-17T11:32:39.891Z,101239.44
2022-10-17T11:35:24.954Z,101244.38
2022-10-17T11:38:01.765Z,101237.88
2022-10-17T11:40:40.544Z,101240.03
2022-10-17T11:43:20.110Z,101231.13
2022-10-17T11:46:25.273Z,101243.91
2022-10-17T11:49:04.047Z,101254.56
2022-10-17T11:52:02.240Z,101257.56
2022-10-17T11:54:45.115Z,101256.28
2022-10-17T11:57:22.056Z,101258.56
2022-10-17T12:00:08.599Z,101255.28
2022-10-17T12:02:56.025Z,101261.66
2022-10-17T12:05:36.977Z,101262.81
2022-10-17T12:08:17.318Z,101247.34
2022-10-17T12:11:14.751Z,101260.88
2022-10-17T12:13:52.551Z,101279.38
2022-10-17T12:16:23.761Z,101274.22
2022-10-17T12:19:00.931Z,101269.19
2022-10-17T12:21:55.103Z,101266.84
2022-10-17T12:24:54.277Z,101271.38
2022-10-17T12:27:46.129Z,101267.47
2022-10-17T12:30:23.473Z,101268.16
2022-10-17T12:33:06.525Z,101279.91
2022-10-17T12:35:39.341Z,101277.81
2022-10-17T12:38:24.866Z,101282.72
2022-10-17T12:40:57.869Z,101296.78
2022-10-17T12:43:29.200Z,101293.84
2022-10-17T12:46:02.153Z,101303.25
2022-10-17T12:48:36.277Z,101304.75
2022-10-17T12:51:35.303Z,101307.97
2022-10-17T12:54:15.057Z,101316.09
2022-10-17T12:56:48.737Z,101302.69
2022-10-17T12:59:23.911Z,101347.81
2022-10-17T13:01:59.083Z,101379.16
2022-10-17T13:04:31.133Z,101354.78
2022-10-17T13:07:03.773Z,101295.13
2022-10-17T13:09:43.335Z,101294.53
2022-10-17T13:12:22.861Z,101301.50
2022-10-17T13:14:54.925Z,101304.41
2022-10-17T13:17:30.711Z,101323.78
2022-10-17T13:20:02.951Z,101319.84
2022-10-17T13:22:34.237Z,101316.00
2022-10-17T13:25:26.298Z,101323.75
2022-10-17T13:28:06.876Z,101326.59
2022-10-17T13:30:38.221Z,101353.50
2022-10-17T13:33:31.122Z,101374.81
2022-10-17T13:36:06.599Z,101392.78
2022-10-17T13:38:41.719Z,101369.75
2022-10-17T13:41:34.838Z,101351.13
2022-10-17T13:44:19.489Z,101339.69
2022-10-17T13:46:51.797Z,101328.38
2022-10-17T13:49:33.801Z,101346.53
2022-10-17T13:52:07.339Z,101350.41
2022-10-17T13:54:40.591Z,101340.59
2022-10-17T13:57:24.190Z,101330.03
2022-10-17T13:59:58.854Z,101318.41
2022-10-17T14:02:31.833Z,101312.16
2022-10-17T14:05:18.658Z,101316.53
2022-10-17T14:08:14.233Z,101313.69
2022-10-17T14:10:47.682Z,101324.41
2022-10-17T14:13:27.774Z,101318.28
2022-10-17T14:16:01.330Z,101322.50
2022-10-17T14:18:36.677Z,101333.28
2022-10-17T14:21:34.345Z,101335.22
2022-10-17T14:24:26.187Z,101327.28
2022-10-17T14:26:59.471Z,101330.16
2022-10-17T14:29:49.645Z,101359.69
2022-10-17T14:32:22.111Z,101362.88
2022-10-17T14:35:05.601Z,101360.44
2022-10-17T14:37:49.298Z,101377.53
2022-10-17T14:40:23.597Z,101377.13
2022-10-17T14:42:57.994Z,101382.50
2022-10-17T14:45:36.224Z,101385.38
2022-10-17T14:48:13.484Z,101400.59
2022-10-17T14:51:12.542Z,101416.63
2022-10-17T14:54:04.952Z,101416.03
2022-10-17T14:56:40.890Z,101402.81
2022-10-17T14:59:21.420Z,101426.66
2022-10-17T15:01:56.929Z,101427.59
2022-10-17T15:04:28.211Z,101426.84
2022-10-17T15:06:59.542Z,101429.47
2022-10-17T15:09:31.145Z,101429.69
2022-10-17T15:12:04.038Z,101443.00
2022-10-17T15:14:35.323Z,101448.38
2022-10-17T15:17:15.704Z,101451.09
2022-10-17T15:19:48.708Z,101450.31
2022-10-17T15:22:20.008Z,101457.50
2022-10-17T15:24:51.363Z,101448.69
2022-10-17T15:27:24.756Z,101446.88
2022-10-17T15:29:56.043Z,101451.31
2022-10-17T15:32:27.358Z,101458.56
2022-10-17T15:34:58.640Z,101456.94
2022-10-17T15:37:33.854Z,101455.28
2022-10-17T15:40:06.051Z,101450.25
2022-10-17T15:42:37.297Z,101445.81
2022-10-17T15:45:15.526Z,101430.97
2022-10-17T15:47:58.994Z,101457.44
2022-10-17T15:50:30.552Z,101462.88
2022-10-17T15:53:01.851Z,101465.56
2022-10-17T15:55:33.134Z,101471.88
2022-10-17T15:58:04.546Z,101475.38
2022-10-17T16:00:35.873Z,101473.63
2022-10-17T16:03:07.192Z,101471.81
2022-10-17T16:05:38.460Z,101477.25
2022-10-17T16:08:09.729Z,101471.97
2022-10-17T16:10:41.129Z,101484.59
2022-10-17T16:13:21.082Z,101470.56
2022-10-17T16:15:52.898Z,101483.00
2022-10-17T16:18:24.158Z,101479.50
2022-10-17T16:20:55.418Z,101484.00
2022-10-17T16:23:26.673Z,101474.50
2022-10-17T16:25:57.930Z,101498.53
2022-10-17T16:28:29.238Z,101499.44
2022-10-17T16:31:00.835Z,101499.50
2022-10-17T16:33:32.078Z,101492.38
2022-10-17T16:36:03.482Z,101494.13
2022-10-17T16:38:34.875Z,101504.00
2022-10-17T16:41:23.835Z,101484.53
2022-10-17T16:43:57.664Z,101489.03
2022-10-17T16:46:30.669Z,101499.72
2022-10-17T16:49:04.154Z,101497.97
2022-10-17T16:51:35.835Z,101507.84
2022-10-17T16:54:07.208Z,101516.00
2022-10-17T16:56:38.604Z,101514.31
2022-10-17T16:59:11.513Z,101513.47
2022-10-17T17:01:42.916Z,101518.94
2022-10-17T17:04:14.233Z,101524.31
2022-10-17T17:09:22.058Z,101526.25
2022-10-17T17:11:53.331Z,101531.66
2022-10-17T17:14:24.616Z,101529.06
2022-10-17T17:16:55.866Z,101529.13
2022-10-17T17:19:27.153Z,101536.31
2022-10-17T17:21:58.411Z,101538.06
2022-10-17T17:24:29.678Z,101537.19
2022-10-17T17:27:00.934Z,101543.44
2022-10-17T17:29:32.409Z,101542.59
2022-10-17T17:32:03.948Z,101547.03
2022-10-17T17:34:37.060Z,101538.16
2022-10-17T17:37:08.346Z,101550.66
2022-10-17T17:39:39.643Z,101554.28
2022-10-17T17:42:10.945Z,101553.34
2022-10-17T17:44:42.305Z,101536.63
2022-10-17T17:47:14.030Z,101548.91
2022-10-17T17:49:45.334Z,101547.16
2022-10-17T17:52:16.692Z,101547.16
2022-10-17T17:54:47.958Z,101552.53
2022-10-17T17:57:19.210Z,101554.28
2022-10-17T17:59:50.466Z,101556.97
2022-10-17T18:02:21.750Z,101559.66
2022-10-17T18:04:53.013Z,101558.75
2022-10-17T18:07:24.361Z,101564.22
2022-10-17T18:09:56.889Z,101568.72
2022-10-17T18:12:29.338Z,101558.91
2022-10-17T18:15:02.037Z,101563.41
2022-10-17T18:17:33.481Z,101566.06
2022-10-17T18:20:06.125Z,101544.03
2022-10-17T18:22:37.495Z,101568.63
2022-10-17T18:25:08.942Z,101561.41
2022-10-17T18:27:40.245Z,101563.97
2022-10-17T18:30:11.722Z,101563.06
2022-10-17T18:32:42.991Z,101580.91
2022-10-17T18:35:14.441Z,101588.03
2022-10-17T18:37:45.768Z,101586.22
2022-10-17T18:40:17.199Z,101591.66
2022-10-17T18:42:48.450Z,101583.75
2022-10-17T18:45:19.809Z,101583.94
2022-10-17T18:47:52.710Z,101597.13
2022-10-17T18:50:24.659Z,101591.81
2022-10-17T18:52:56.038Z,101596.31
2022-10-17T18:55:27.304Z,101603.47
2022-10-17T18:58:00.007Z,101606.16
2022-10-17T19:00:31.353Z,101593.66
2022-10-17T19:03:04.726Z,101597.19
2022-10-17T19:05:38.501Z,101593.81
2022-10-17T19:08:09.744Z,101611.72
2022-10-17T19:10:42.594Z,101604.66
2022-10-17T19:13:16.890Z,101625.34
2022-10-17T19:15:50.590Z,101630.03
2022-10-17T19:18:21.834Z,101623.84
2022-10-17T19:20:53.114Z,101618.56
2022-10-17T19:23:24.373Z,101626.72
2022-10-17T19:26:01.125Z,101629.50
2022-10-17T19:28:33.832Z,101616.16
2022-10-17T19:31:06.122Z,101627.00
2022-10-17T19:33:37.583Z,101621.03
2022-10-17T19:36:13.315Z,101630.78
2022-10-17T19:38:44.637Z,101635.38
2022-10-17T19:41:16.500Z,101639.94
2022-10-17T19:43:48.203Z,101639.31
2022-10-17T19:46:23.553Z,101643.00
2022-10-17T19:48:55.321Z,101639.75
2022-10-17T19:51:27.542Z,101641.47
2022-10-17T19:54:00.398Z,101648.63
2022-10-17T19:56:37.539Z,101646.03
2022-10-17T19:59:11.918Z,101650.59
2022-10-17T20:01:44.627Z,101660.53
2022-10-17T20:04:15.981Z,101666.91
2022-10-17T20:06:47.233Z,101665.25
2022-10-17T20:09:18.549Z,101671.63
2022-10-17T20:11:49.803Z,101686.03
2022-10-17T20:14:21.151Z,101685.25
2022-10-17T20:16:52.633Z,101663.28
2022-10-17T20:19:24.051Z,101689.94
2022-10-17T20:21:55.315Z,101693.63
2022-10-17T20:24:26.605Z,101700.84
2022-10-17T20:26:57.934Z,101701.84
2022-10-17T20:29:29.219Z,101697.59
2022-10-17T20:32:00.851Z,101702.13
2022-10-17T20:34:35.392Z,101712.94
2022-10-17T20:37:06.663Z,101715.69
2022-10-17T20:39:37.993Z,101722.06
2022-10-17T20:42:09.305Z,101735.53
2022-10-17T20:44:40.646Z,101733.84
2022-10-17T20:47:21.079Z,101728.56
2022-10-17T20:50:04.655Z,101730.38
2022-10-17T20:52:36.038Z,101730.53
2022-10-17T20:55:07.723Z,101742.13
2022-10-17T20:57:39.000Z,101742.16
2022-10-17T21:00:11.017Z,101752.88
2022-10-17T21:02:42.268Z,101751.97
2022-10-17T21:05:13.780Z,101739.66
2022-10-17T21:07:45.114Z,101760.00
2022-10-17T21:10:35.217Z,101762.75
2022-10-17T21:13:06.837Z,101763.66
2022-10-17T21:15:38.098Z,101757.53
2022-10-17T21:18:09.368Z,101760.22
2022-10-17T21:20:40.617Z,101750.69
2022-10-17T21:23:11.849Z,101767.38
2022-10-17T21:25:43.822Z,101759.44
2022-10-17T21:28:15.159Z,101764.66
2022-10-17T21:30:46.415Z,101762.81
2022-10-17T21:33:17.693Z,101772.50
2022-10-17T21:35:54.726Z,101783.06
2022-10-17T21:38:26.032Z,101775.88
2022-10-17T21:40:57.307Z,101764.31
2022-10-17T21:43:28.574Z,101782.78
2022-10-17T21:46:08.249Z,101762.44
2022-10-17T21:48:39.861Z,101780.88
2022-10-17T21:51:14.997Z,101772.72
2022-10-17T21:53:46.750Z,101769.19
2022-10-17T21:56:20.664Z,101763.69
2022-10-17T21:58:51.926Z,101775.25
2022-10-17T22:01:26.103Z,101745.22
2022-10-17T22:03:59.782Z,101755.81
2022-10-17T22:06:39.751Z,101768.09
2022-10-17T22:09:24.409Z,101768.09
2022-10-17T22:11:56.870Z,101778.81
2022-10-17T22:14:28.390Z,101781.53
2022-10-17T22:17:01.342Z,101756.84
2022-10-17T22:19:32.710Z,101781.53
2022-10-17T22:22:03.948Z,101773.59
2022-10-17T22:24:35.462Z,101780.69
2022-10-17T22:27:06.731Z,101781.69
2022-10-17T22:29:39.548Z,101782.63
2022-10-17T22:32:10.848Z,101786.31
2022-10-17T22:34:42.265Z,101784.69
2022-10-17T22:37:13.613Z,101782.19
2022-10-17T22:39:44.961Z,101775.16
2022-10-17T22:42:16.269Z,101771.69
2022-10-17T22:44:47.740Z,101775.34
2022-10-17T22:47:18.989Z,101765.59
2022-10-17T22:49:50.357Z,101771.06
2022-10-17T22:52:21.856Z,101769.38
2022-10-17T22:54:53.122Z,101774.78
2022-10-17T22:57:24.364Z,101779.28
2022-10-17T22:59:55.730Z,101774.91
2022-10-17T23:02:27.158Z,101751.91
2022-10-17T23:04:59.211Z,101763.44
2022-10-17T23:07:31.048Z,101756.47
2022-10-17T23:10:03.247Z,101770.72
2022-10-17T23:12:34.501Z,101777.94
2022-10-17T23:15:06.278Z,101770.88
2022-10-17T23:17:37.585Z,101775.44
2022-10-17T23:20:09.118Z,101776.38
2022-10-17T23:22:40.386Z,101786.19
2022-10-17T23:25:11.675Z,101791.53
2022-10-17T23:27:43.444Z,101779.94
2022-10-17T23:30:15.081Z,101781.78
2022-10-17T23:32:46.352Z,101790.72
2022-10-17T23:35:17.770Z,101766.88
2022-10-17T23:37:49.005Z,101794.25
2022-10-17T23:40:20.285Z,101812.06
2022-10-17T23:42:51.574Z,101805.78
2022-10-17T23:45:22.966Z,101806.66
2022-10-17T23:47:54.295Z,101817.31
2022-10-17T23:50:25.648Z,101810.09
2022-10-17T23:52:56.901Z,101810.94
2022-10-17T23:55:28.170Z,101817.16
2022-10-17T23:57:59.426Z,101815.34
